createdAt,value
2019-03-23T00:01:14.917Z,50.38
2019-03-23T00:03:41.762Z,50.83
2019-03-23T00:06:08.660Z,48.48
2019-03-23T00:08:35.680Z,50.58
2019-03-23T00:11:02.534Z,51.15
2019-03-23T00:13:29.509Z,50.65
2019-03-23T00:15:56.432Z,50.63
2019-03-23T00:18:23.301Z,45.88
2019-03-23T00:20:50.455Z,49.75
2019-03-23T00:23:17.310Z,50.35
2019-03-23T00:25:44.165Z,51.60
2019-03-23T00:28:11.046Z,53.87
2019-03-23T00:30:38.057Z,55.80
2019-03-23T00:33:05.130Z,55.23
2019-03-23T00:35:32.003Z,57.53
2019-03-23T00:37:58.817Z,54.55
2019-03-23T00:40:25.645Z,51.13
2019-03-23T00:42:52.884Z,53.38
2019-03-23T00:45:19.820Z,53.83
2019-03-23T00:47:46.662Z,54.23
2019-03-23T00:50:13.578Z,55.00
2019-03-23T00:52:40.307Z,56.95
2019-03-23T00:55:07.168Z,60.88
2019-03-23T00:57:35.589Z,66.62
2019-03-23T01:00:04.960Z,68.40
2019-03-23T01:02:31.837Z,67.30
2019-03-23T01:04:58.700Z,69.27
2019-03-23T01:07:25.526Z,67.72
2019-03-23T01:09:52.424Z,67.78
2019-03-23T01:12:19.306Z,66.40
2019-03-23T01:14:46.181Z,68.85
2019-03-23T01:17:13.058Z,69.87
2019-03-23T01:19:39.902Z,73.83
2019-03-23T01:22:06.848Z,78.05
2019-03-23T01:24:33.759Z,82.42
2019-03-23T01:27:00.644Z,82.78
2019-03-23T01:29:27.628Z,86.02
2019-03-23T01:31:54.484Z,86.37
2019-03-23T01:34:21.510Z,84.83
2019-03-23T01:36:48.470Z,88.40
2019-03-23T01:39:15.422Z,86.50
2019-03-23T01:41:42.401Z,83.55
2019-03-23T01:44:09.388Z,80.90
2019-03-23T01:46:36.240Z,79.20
2019-03-23T01:49:03.128Z,80.20
2019-03-23T01:51:29.998Z,82.97
2019-03-23T01:53:56.842Z,74.77
2019-03-23T01:56:23.810Z,79.27
2019-03-23T01:58:50.847Z,75.45
2019-03-23T02:01:17.825Z,77.37
2019-03-23T02:03:44.657Z,79.65
2019-03-23T02:06:11.648Z,79.25
2019-03-23T02:08:38.567Z,88.40
2019-03-23T02:11:05.387Z,80.25
2019-03-23T02:13:32.258Z,75.72
2019-03-23T02:15:59.154Z,72.80
2019-03-23T02:18:26.033Z,73.12
2019-03-23T02:20:52.934Z,72.05
2019-03-23T02:23:19.850Z,71.22
2019-03-23T02:25:46.707Z,73.57
2019-03-23T02:28:13.555Z,67.97
2019-03-23T02:30:40.892Z,65.12
2019-03-23T02:33:07.906Z,67.27
2019-03-23T02:35:36.418Z,66.42
2019-03-23T02:38:03.370Z,66.20
2019-03-23T02:40:30.214Z,64.62
2019-03-23T02:42:57.044Z,64.00
2019-03-23T02:45:23.937Z,53.30
2019-03-23T02:47:50.925Z,49.98
2019-03-23T02:50:17.868Z,48.05
2019-03-23T02:52:44.755Z,43.68
2019-03-23T02:55:11.639Z,39.95
2019-03-23T02:57:38.437Z,40.73
2019-03-23T03:00:09.014Z,39.00
2019-03-23T03:02:35.973Z,38.92
2019-03-23T03:05:05.668Z,39.10
2019-03-23T03:07:42.012Z,39.10
2019-03-23T03:10:01.349Z,41.30
2019-03-23T03:12:28.355Z,39.98
2019-03-23T03:14:55.286Z,44.03
2019-03-23T03:17:22.156Z,43.95
2019-03-23T03:19:49.088Z,47.33
2019-03-23T03:22:16.148Z,46.50
2019-03-23T03:24:43.055Z,49.67
2019-03-23T03:27:09.908Z,48.48
2019-03-23T03:29:36.972Z,45.23
2019-03-23T03:32:03.845Z,44.50
2019-03-23T03:34:31.103Z,46.18
2019-03-23T03:36:59.514Z,43.92
2019-03-23T03:39:26.417Z,46.53
2019-03-23T03:41:53.421Z,42.45
2019-03-23T03:44:20.290Z,40.45
2019-03-23T03:46:47.085Z,43.78
2019-03-23T03:49:13.971Z,44.33
2019-03-23T03:51:40.929Z,44.35
2019-03-23T03:54:07.642Z,40.88
2019-03-23T03:56:34.466Z,43.30
2019-03-23T03:59:01.411Z,42.90
2019-03-23T04:01:28.294Z,39.63
2019-03-23T04:03:55.113Z,40.08
2019-03-23T04:06:21.950Z,39.78
2019-03-23T04:08:48.835Z,38.25
2019-03-23T04:11:15.729Z,39.78
2019-03-23T04:13:42.545Z,39.45
2019-03-23T04:16:09.496Z,37.63
2019-03-23T04:18:36.370Z,39.00
2019-03-23T04:21:03.234Z,38.28
2019-03-23T04:23:30.160Z,38.95
2019-03-23T04:25:57.347Z,40.10
2019-03-23T04:28:24.270Z,39.10
2019-03-23T04:30:51.131Z,39.33
2019-03-23T04:33:17.987Z,37.90
2019-03-23T04:35:44.828Z,38.80
2019-03-23T04:38:22.158Z,37.90
2019-03-23T04:40:40.778Z,39.80
2019-03-23T04:43:07.681Z,36.85
2019-03-23T04:45:34.719Z,37.40
2019-03-23T04:48:01.596Z,38.25
2019-03-23T04:50:28.396Z,37.60
2019-03-23T04:52:55.251Z,36.50
2019-03-23T04:55:22.143Z,39.53
2019-03-23T04:57:48.996Z,38.23
2019-03-23T05:00:17.532Z,39.55
2019-03-23T05:02:44.370Z,37.95
2019-03-23T05:05:11.278Z,38.13
2019-03-23T05:07:39.064Z,38.10
2019-03-23T05:10:06.672Z,37.40
2019-03-23T05:12:33.578Z,35.70
2019-03-23T05:15:00.569Z,36.15
2019-03-23T05:17:27.631Z,36.90
2019-03-23T05:19:54.515Z,37.78
2019-03-23T05:22:21.989Z,37.53
2019-03-23T05:24:49.040Z,35.30
2019-03-23T05:27:15.815Z,37.93
2019-03-23T05:29:42.715Z,39.60
2019-03-23T05:32:09.641Z,38.98
2019-03-23T05:34:36.853Z,35.48
2019-03-23T05:37:05.015Z,35.70
2019-03-23T05:39:32.121Z,35.55
2019-03-23T05:41:58.987Z,35.80
2019-03-23T05:44:25.871Z,35.05
2019-03-23T05:46:54.379Z,35.38
2019-03-23T05:49:21.415Z,35.75
2019-03-23T05:51:48.289Z,35.68
2019-03-23T05:54:14.998Z,32.63
2019-03-23T05:56:41.973Z,32.00
2019-03-23T05:59:08.834Z,32.50
2019-03-23T06:01:35.816Z,33.50
2019-03-23T06:04:02.777Z,30.88
2019-03-23T06:06:29.605Z,31.57
2019-03-23T06:08:56.480Z,27.75
2019-03-23T06:11:23.386Z,29.52
2019-03-23T06:13:50.245Z,30.75
2019-03-23T06:16:17.987Z,30.60
2019-03-23T06:18:45.021Z,31.30
2019-03-23T06:21:11.783Z,31.10
2019-03-23T06:23:39.313Z,30.85
2019-03-23T06:26:06.481Z,32.28
2019-03-23T06:28:33.623Z,31.75
2019-03-23T06:31:00.440Z,32.35
2019-03-23T06:33:27.297Z,31.48
2019-03-23T06:35:54.265Z,32.20
2019-03-23T06:38:21.140Z,30.77
2019-03-23T06:40:48.013Z,30.88
2019-03-23T06:43:14.949Z,30.45
2019-03-23T06:45:41.829Z,29.77
2019-03-23T06:48:08.545Z,30.45
2019-03-23T06:50:35.602Z,30.92
2019-03-23T06:53:02.554Z,29.27
2019-03-23T06:55:29.457Z,29.15
2019-03-23T06:57:56.361Z,30.20
2019-03-23T07:00:23.356Z,28.77
2019-03-23T07:02:50.296Z,29.45
2019-03-23T07:05:17.101Z,31.25
2019-03-23T07:07:43.919Z,31.93
2019-03-23T07:10:13.535Z,34.65
2019-03-23T07:12:40.331Z,30.88
2019-03-23T07:15:19.472Z,30.32
2019-03-23T07:17:39.480Z,31.93
2019-03-23T07:20:10.995Z,32.20
2019-03-23T07:22:37.994Z,31.48
2019-03-23T07:25:08.658Z,32.20
2019-03-23T07:27:35.723Z,32.17
2019-03-23T07:30:08.753Z,33.28
2019-03-23T07:32:35.712Z,68.50
2019-03-23T07:35:03.473Z,35.95
2019-03-23T07:37:30.414Z,33.83
2019-03-23T07:39:57.730Z,33.15
2019-03-23T07:42:24.775Z,35.70
2019-03-23T07:44:51.668Z,37.00
2019-03-23T07:47:19.120Z,35.65
2019-03-23T07:49:46.144Z,35.43
2019-03-23T07:52:13.033Z,36.38
2019-03-23T07:54:39.960Z,36.28
2019-03-23T07:57:06.923Z,35.20
2019-03-23T07:59:33.908Z,39.40
2019-03-23T08:02:00.898Z,40.55
2019-03-23T08:04:27.733Z,35.03
2019-03-23T08:06:54.493Z,35.85
2019-03-23T08:09:23.473Z,35.98
2019-03-23T08:11:50.199Z,37.23
2019-03-23T08:14:17.099Z,39.65
2019-03-23T08:16:43.992Z,38.35
2019-03-23T08:19:10.956Z,36.83
2019-03-23T08:21:37.911Z,37.45
2019-03-23T08:24:04.762Z,37.73
2019-03-23T08:26:31.512Z,38.23
2019-03-23T08:28:58.404Z,39.15
2019-03-23T08:31:25.324Z,40.35
2019-03-23T08:33:55.564Z,41.98
2019-03-23T08:36:22.803Z,38.00
2019-03-23T08:38:51.649Z,38.05
2019-03-23T08:41:19.884Z,40.12
2019-03-23T08:43:46.725Z,35.88
2019-03-23T08:46:13.612Z,39.95
2019-03-23T08:48:40.669Z,37.00
2019-03-23T08:51:07.553Z,38.02
2019-03-23T08:53:34.558Z,38.83
2019-03-23T08:59:38.942Z,37.23
2019-03-23T09:02:05.903Z,36.50
2019-03-23T09:04:32.839Z,38.38
2019-03-23T09:06:59.660Z,38.60
2019-03-23T09:09:26.525Z,39.65
2019-03-23T09:11:53.547Z,38.38
2019-03-23T09:14:20.393Z,37.70
2019-03-23T09:16:47.295Z,38.83
2019-03-23T09:19:14.293Z,38.98
2019-03-23T09:21:41.146Z,37.28
2019-03-23T09:24:07.905Z,39.25
2019-03-23T09:26:35.221Z,36.90
2019-03-23T09:29:02.063Z,37.58
2019-03-23T09:31:28.923Z,40.83
2019-03-23T09:33:55.941Z,37.83
2019-03-23T09:36:23.210Z,36.23
2019-03-23T09:38:50.052Z,37.28
2019-03-23T09:41:16.974Z,37.60
2019-03-23T09:43:43.810Z,40.95
2019-03-23T09:46:10.821Z,39.03
2019-03-23T09:48:37.816Z,37.10
2019-03-23T09:51:04.686Z,37.35
2019-03-23T09:53:31.557Z,38.20
2019-03-23T09:55:58.627Z,38.10
2019-03-23T09:58:25.455Z,37.23
2019-03-23T10:00:52.374Z,37.65
2019-03-23T10:03:19.189Z,36.65
2019-03-23T10:05:46.060Z,38.00
2019-03-23T10:08:12.911Z,45.35
2019-03-23T10:10:40.207Z,39.63
2019-03-23T10:13:07.053Z,37.88
2019-03-23T10:15:33.918Z,37.17
2019-03-23T10:18:01.755Z,36.42
2019-03-23T10:20:30.906Z,43.17
2019-03-23T10:22:57.870Z,40.60
2019-03-23T10:25:24.746Z,37.35
2019-03-23T10:27:52.094Z,37.28
2019-03-23T10:30:19.242Z,36.20
2019-03-23T10:32:46.054Z,47.10
2019-03-23T10:35:12.974Z,39.27
2019-03-23T10:37:40.177Z,38.25
2019-03-23T10:40:08.735Z,36.70
2019-03-23T10:42:35.531Z,36.73
2019-03-23T10:45:05.315Z,36.83
2019-03-23T10:49:59.106Z,37.70
2019-03-23T10:52:26.151Z,37.95
2019-03-23T10:54:52.966Z,35.00
2019-03-23T10:57:20.109Z,35.78
2019-03-23T10:59:47.014Z,42.67
2019-03-23T11:02:13.844Z,41.65
2019-03-23T11:04:40.701Z,37.38
2019-03-23T11:07:07.662Z,36.20
2019-03-23T11:09:34.673Z,35.28
2019-03-23T11:12:01.779Z,33.23
2019-03-23T11:14:28.721Z,31.73
2019-03-23T11:16:55.723Z,33.48
2019-03-23T11:19:25.644Z,32.85
2019-03-23T11:21:52.513Z,30.80
2019-03-23T11:24:20.710Z,31.17
2019-03-23T11:26:47.581Z,28.20
2019-03-23T11:29:14.448Z,37.40
2019-03-23T11:31:41.528Z,34.38
2019-03-23T11:34:17.507Z,31.75
2019-03-23T11:36:37.714Z,31.27
2019-03-23T11:39:05.758Z,27.90
2019-03-23T11:41:32.774Z,29.98
2019-03-23T11:43:59.600Z,26.05
2019-03-23T11:46:26.451Z,27.07
2019-03-23T11:48:53.306Z,26.65
2019-03-23T11:51:20.288Z,26.02
2019-03-23T11:53:47.310Z,24.92
2019-03-23T11:56:14.171Z,23.75
2019-03-23T11:58:41.205Z,23.92
2019-03-23T12:01:08.111Z,26.27
2019-03-23T12:03:34.992Z,24.72
2019-03-23T12:06:01.936Z,28.50
2019-03-23T12:08:28.812Z,22.02
2019-03-23T12:11:02.828Z,21.93
2019-03-23T12:13:24.363Z,21.00
2019-03-23T12:15:51.226Z,21.55
2019-03-23T12:18:18.144Z,21.20
2019-03-23T12:20:45.090Z,20.25
2019-03-23T12:23:11.958Z,20.23
2019-03-23T12:25:38.837Z,27.05
2019-03-23T12:28:05.816Z,30.60
2019-03-23T12:30:32.723Z,46.58
2019-03-23T12:32:59.672Z,22.10
2019-03-23T12:35:26.782Z,20.88
2019-03-23T12:37:53.690Z,22.77
2019-03-23T12:40:20.872Z,41.00
2019-03-23T12:42:47.878Z,22.27
2019-03-23T12:45:14.743Z,20.50
2019-03-23T12:47:41.713Z,22.15
2019-03-23T12:50:09.647Z,18.60
2019-03-23T12:52:36.582Z,23.50
2019-03-23T12:55:05.220Z,22.85
2019-03-23T12:57:32.100Z,29.80
2019-03-23T12:59:59.326Z,16.37
2019-03-23T13:02:26.217Z,16.65
2019-03-23T13:04:53.180Z,15.78
2019-03-23T13:07:20.083Z,15.53
2019-03-23T13:09:46.952Z,19.02
2019-03-23T13:12:13.824Z,16.52
2019-03-23T13:14:40.767Z,17.67
2019-03-23T13:17:07.622Z,15.83
2019-03-23T13:19:34.488Z,24.77
2019-03-23T13:22:01.439Z,16.30
2019-03-23T13:24:28.280Z,17.48
2019-03-23T13:26:55.183Z,17.30
2019-03-23T13:29:22.041Z,19.30
2019-03-23T13:31:49.013Z,18.25
2019-03-23T13:34:15.802Z,19.70
2019-03-23T13:36:42.734Z,19.55
2019-03-23T13:39:09.731Z,21.82
2019-03-23T13:41:47.780Z,17.15
2019-03-23T13:44:14.681Z,22.97
2019-03-23T13:46:41.531Z,19.82
2019-03-23T13:49:08.459Z,26.00
2019-03-23T13:51:35.366Z,21.93
2019-03-23T13:54:02.232Z,24.95
2019-03-23T13:56:29.749Z,17.77
2019-03-23T13:58:56.612Z,18.55
2019-03-23T14:01:23.721Z,16.35
2019-03-23T14:03:50.838Z,16.77
2019-03-23T14:06:17.780Z,15.40
2019-03-23T14:08:44.661Z,17.52
2019-03-23T14:11:11.714Z,19.95
2019-03-23T14:13:38.653Z,18.32
2019-03-23T14:16:05.591Z,17.00
2019-03-23T14:18:32.556Z,17.77
2019-03-23T14:20:59.493Z,17.65
2019-03-23T14:23:26.373Z,18.40
2019-03-23T14:25:53.650Z,16.95
2019-03-23T14:28:20.541Z,17.82
2019-03-23T14:30:47.395Z,38.67
2019-03-23T14:33:14.308Z,16.70
2019-03-23T14:35:41.134Z,16.12
2019-03-23T14:38:08.007Z,17.40
2019-03-23T14:40:34.991Z,17.25
2019-03-23T14:43:01.914Z,15.85
2019-03-23T14:45:28.878Z,16.10
2019-03-23T14:47:55.870Z,50.23
2019-03-23T14:50:22.934Z,16.55
2019-03-23T14:52:49.792Z,17.02
2019-03-23T14:55:16.698Z,14.13
2019-03-23T14:57:43.603Z,17.80
2019-03-23T15:00:10.479Z,17.62
2019-03-23T15:02:37.833Z,13.60
2019-03-23T15:05:05.988Z,14.25
2019-03-23T15:07:33.155Z,13.95
2019-03-23T15:10:00.316Z,14.15
2019-03-23T15:12:27.461Z,13.70
2019-03-23T15:14:54.199Z,14.05
2019-03-23T15:17:21.342Z,13.40
2019-03-23T15:19:48.267Z,14.43
2019-03-23T15:22:15.222Z,13.75
2019-03-23T15:24:42.845Z,13.70
2019-03-23T15:27:09.715Z,14.78
2019-03-23T15:29:36.763Z,14.55
2019-03-23T15:32:03.574Z,14.25
2019-03-23T15:34:30.557Z,18.37
2019-03-23T15:36:57.551Z,14.60
2019-03-23T15:39:24.362Z,13.85
2019-03-23T15:41:51.235Z,14.90
2019-03-23T15:44:18.213Z,13.62
2019-03-23T15:46:45.409Z,12.98
2019-03-23T15:49:12.247Z,13.48
2019-03-23T15:51:39.265Z,14.87
2019-03-23T15:54:06.077Z,13.53
2019-03-23T15:56:32.923Z,14.35
2019-03-23T15:58:59.800Z,13.48
2019-03-23T16:01:26.757Z,13.08
2019-03-23T16:03:53.655Z,13.22
2019-03-23T16:06:20.531Z,11.43
2019-03-23T16:08:47.421Z,14.18
2019-03-23T16:11:14.209Z,12.65
2019-03-23T16:13:41.268Z,13.32
2019-03-23T16:16:08.135Z,14.80
2019-03-23T16:18:35.026Z,13.72
2019-03-23T16:21:01.937Z,13.05
2019-03-23T16:23:28.845Z,12.78
2019-03-23T16:25:55.689Z,12.93
2019-03-23T16:28:22.534Z,14.00
2019-03-23T16:30:49.382Z,14.90
2019-03-23T16:33:16.281Z,11.25
2019-03-23T16:35:43.287Z,14.10
2019-03-23T16:38:10.309Z,13.95
2019-03-23T16:40:37.295Z,13.10
2019-03-23T16:43:06.247Z,13.13
2019-03-23T16:45:33.404Z,14.23
2019-03-23T16:48:00.386Z,13.18
2019-03-23T16:50:27.378Z,14.38
2019-03-23T16:52:54.368Z,14.20
2019-03-23T16:55:21.252Z,13.08
2019-03-23T16:57:48.420Z,15.05
2019-03-23T17:00:19.188Z,14.78
2019-03-23T17:02:46.337Z,14.95
2019-03-23T17:05:13.253Z,16.87
2019-03-23T17:07:40.132Z,17.80
2019-03-23T17:10:07.598Z,15.55
2019-03-23T17:12:34.465Z,18.12
2019-03-23T17:15:01.970Z,50.80
2019-03-23T17:17:28.988Z,20.57
2019-03-23T17:19:55.898Z,30.27
2019-03-23T17:22:22.915Z,20.12
2019-03-23T17:24:49.806Z,18.95
2019-03-23T17:27:16.697Z,20.43
2019-03-23T17:29:43.698Z,18.80
2019-03-23T17:32:10.686Z,20.23
2019-03-23T17:34:37.670Z,20.37
2019-03-23T17:37:04.635Z,32.38
2019-03-23T17:39:31.505Z,28.95
2019-03-23T17:41:58.439Z,20.40
2019-03-23T17:44:25.230Z,19.00
2019-03-23T17:46:52.104Z,22.70
2019-03-23T17:49:18.943Z,23.87
2019-03-23T17:51:45.932Z,22.95
2019-03-23T17:54:13.125Z,21.27
2019-03-23T17:56:40.046Z,23.25
2019-03-23T17:59:06.916Z,28.20
2019-03-23T18:01:33.983Z,22.07
2019-03-23T18:04:00.914Z,22.98
2019-03-23T18:06:29.575Z,26.33
2019-03-23T18:08:56.397Z,25.97
2019-03-23T18:11:23.356Z,23.10
2019-03-23T18:13:50.479Z,22.52
2019-03-23T18:16:17.326Z,29.23
2019-03-23T18:18:44.212Z,31.77
2019-03-23T18:21:11.290Z,24.85
2019-03-23T19:27:38.586Z,20.32
2019-03-23T19:30:06.334Z,19.55
2019-03-23T19:32:34.213Z,18.87
2019-03-23T19:37:21.473Z,36.35
2019-03-23T19:39:48.494Z,37.73
2019-03-23T19:42:16.500Z,38.90
2019-03-23T19:44:44.282Z,41.33
2019-03-23T19:47:11.122Z,40.20
2019-03-23T19:49:38.090Z,42.55
2019-03-23T19:52:04.972Z,44.45
2019-03-23T19:54:32.163Z,45.60
2019-03-23T19:56:59.057Z,47.03
2019-03-23T19:59:26.304Z,48.98
2019-03-23T20:01:53.369Z,48.73
2019-03-23T20:04:20.609Z,50.83
2019-03-23T20:06:47.454Z,52.62
2019-03-23T20:09:14.771Z,51.30
2019-03-23T20:11:41.458Z,50.05
2019-03-23T20:14:08.478Z,50.33
2019-03-23T20:16:35.321Z,51.30
2019-03-23T20:19:02.141Z,48.73
2019-03-23T20:21:29.327Z,53.38
2019-03-23T20:23:56.179Z,54.60
2019-03-23T20:26:23.040Z,49.65
2019-03-23T20:28:50.135Z,51.90
2019-03-23T20:31:17.185Z,53.00
2019-03-23T20:33:44.079Z,54.20
2019-03-23T20:36:10.901Z,51.00
2019-03-23T20:38:37.795Z,51.83
2019-03-23T20:41:04.749Z,51.88
2019-03-23T20:43:31.966Z,52.13
2019-03-23T20:45:58.973Z,47.20
2019-03-23T20:48:25.873Z,48.15
2019-03-23T20:50:52.632Z,46.45
2019-03-23T20:53:19.468Z,45.83
2019-03-23T20:55:46.642Z,44.83
2019-03-23T20:58:13.559Z,45.55
2019-03-23T21:00:40.586Z,43.90
2019-03-23T21:03:07.777Z,44.03
2019-03-23T21:05:34.746Z,43.65
2019-03-23T21:08:02.004Z,45.90
2019-03-23T21:10:28.875Z,46.53
2019-03-23T21:12:55.738Z,45.12
2019-03-23T21:15:22.648Z,43.85
2019-03-23T21:17:51.481Z,45.98
2019-03-23T21:20:18.393Z,44.58
2019-03-23T21:22:45.471Z,44.05
2019-03-23T21:25:12.763Z,46.48
2019-03-23T21:27:39.737Z,47.13
2019-03-23T21:30:12.180Z,49.45
2019-03-23T21:32:39.178Z,50.03
2019-03-23T21:35:06.351Z,52.20
2019-03-23T21:37:34.902Z,55.67
2019-03-23T21:40:02.153Z,53.45
2019-03-23T21:42:28.959Z,54.50
2019-03-23T21:44:56.128Z,54.80
2019-03-23T21:47:23.048Z,54.45
2019-03-23T21:49:49.867Z,55.17
2019-03-23T21:52:17.050Z,53.13
2019-03-23T21:54:44.183Z,54.38
2019-03-23T21:57:11.057Z,56.50
2019-03-23T21:59:37.814Z,57.10
2019-03-23T22:02:04.800Z,58.35
2019-03-23T22:04:31.642Z,59.05
2019-03-23T22:06:58.409Z,58.23
2019-03-23T22:09:25.239Z,61.15
2019-03-23T22:11:52.174Z,60.12
2019-03-23T22:14:19.080Z,61.23
2019-03-23T22:16:45.948Z,61.13
2019-03-23T22:19:12.893Z,58.92
2019-03-23T22:21:39.833Z,58.98
2019-03-23T22:24:06.648Z,60.35
2019-03-23T22:26:34.020Z,59.73
2019-03-23T22:29:00.845Z,62.67
2019-03-23T22:31:27.616Z,63.20
2019-03-23T22:33:54.502Z,61.00
2019-03-23T22:36:21.372Z,61.37
2019-03-23T22:38:48.457Z,62.23
2019-03-23T22:41:15.507Z,62.70
2019-03-23T22:43:42.356Z,65.30
2019-03-23T22:46:09.466Z,61.75
2019-03-23T22:48:36.325Z,60.35
2019-03-23T22:51:04.875Z,63.38
2019-03-23T22:53:31.840Z,64.05
2019-03-23T22:55:59.042Z,63.13
2019-03-23T22:58:25.771Z,63.65
2019-03-23T23:00:53.542Z,62.85
2019-03-23T23:03:20.508Z,60.65
2019-03-23T23:05:47.389Z,62.20
2019-03-23T23:08:14.293Z,61.25
2019-03-23T23:10:41.303Z,60.38
2019-03-23T23:13:08.414Z,61.33
2019-03-23T23:15:35.535Z,63.28
2019-03-23T23:18:02.430Z,66.35
2019-03-23T23:20:29.327Z,63.08
2019-03-23T23:22:56.382Z,64.77
2019-03-23T23:25:23.339Z,68.40
2019-03-23T23:27:50.091Z,64.07
2019-03-23T23:30:16.977Z,67.87
2019-03-23T23:32:43.826Z,69.30
2019-03-23T23:35:10.983Z,65.40
2019-03-23T23:37:38.141Z,56.40
2019-03-23T23:40:05.514Z,64.55
2019-03-23T23:42:32.657Z,58.20
2019-03-23T23:44:59.485Z,57.00
2019-03-23T23:47:26.273Z,68.52
2019-03-23T23:49:53.342Z,68.57
2019-03-23T23:52:20.243Z,60.00
2019-03-23T23:54:47.116Z,54.08
2019-03-23T23:57:14.569Z,51.98
2019-03-23T23:59:41.449Z,53.90
